Detalii statie BONGA [00001D00]

Toti senzorii

Date Temperatura solului [C]Precipitatii [mm]Voltaj baterie [mV]Leaf Wetness [Min]HC Air temperature [C]HC Relative humidity [%]Punctul de roua [C]
medieminmaxsumaultimatimpmedieminmaxmediemediemin
2019-02-21 00:00:00 2 1.9 2.2 0 6748
2019-02-21 01:00:00 1.7 1.6 2 0 6738
2019-02-21 02:00:00 1.6 1.4 1.8 0 6738
2019-02-21 03:00:00 1.9 1.8 2 0 6738
2019-02-21 04:00:00 2 1.9 2.1 0 6728
2019-02-21 05:00:00 2.1 2 2.3 0 6728
2019-02-21 06:00:00 2.1 1.8 2.3 0 6728
2019-02-21 07:00:00 1.9 1.8 2 0 6728
2019-02-21 08:00:00 1.7 1.6 1.9 0 6738
2019-02-21 09:00:00 2 1.8 2.4 0 6756
2019-02-21 10:00:00 2.7 2.3 3.1 0 6786
2019-02-21 11:00:00 3.3 3 3.6 0 6834
2019-02-21 12:00:00 3.9 3.6 4.2 0 6874
2019-02-21 13:00:00 4.3 4 4.5 0 6854
2019-02-21 14:00:00 4.1 4 4.3 0 6864
2019-02-21 15:00:00 4.3 4.3 4.6 0 6874
2019-02-21 16:00:00 4.4 4.3 4.6 0 6854
2019-02-21 17:00:00 4.3 4.2 4.6 0 6834
2019-02-21 18:00:00 4 3.7 4.2 0 6816
2019-02-21 19:00:00 3.9 3.8 4 0 6796
2019-02-21 20:00:00 3.7 3.7 3.9 0 6786
2019-02-21 21:00:00 3.7 3.6 3.8 0 6786
2019-02-21 22:00:00 3.6 3.5 3.7 0 6776
2019-02-21 23:00:00 3.5 3.5 3.6 0 6766
2019-02-22 00:00:00 3.5 3.5 3.7 0 6766
2019-02-22 01:00:00 3.4 3.4 3.6 0 6766
2019-02-22 02:00:00 3.4 3.4 3.5 0 6756
2019-02-22 03:00:00 3.4 3.3 3.5 0 6756
2019-02-22 04:00:00 3.4 3.4 3.5 0 6756
2019-02-22 05:00:00 3.4 3.3 3.5 0 6748
2019-02-22 06:00:00 3.3 3.2 3.4 0 6748
2019-02-22 07:00:00 3.3 3.3 3.5 0 6738
2019-02-22 08:00:00 3.3 3.2 3.5 0 6738
2019-02-22 09:00:00 3.2 2.9 3.4 0 6748
2019-02-22 10:00:00 2.2 1.9 2.8 0 6756
2019-02-22 11:00:00 1.9 1.7 2 0 6766
2019-02-22 12:00:00 1.6 1.5 1.8 0 6854
2019-02-22 13:00:00 1.4 1.3 1.6 0 6922
2019-02-22 14:00:00 1.5 1.4 1.6 0 6864
2019-02-22 15:00:00 1.4 1.3 1.6 0 6942
2019-02-22 16:00:00 1.2 1.1 1.4 0 6904
2019-02-22 17:00:00 1.1 1 1.2 0 6864
2019-02-22 18:00:00 0.8 0.7 1.1 0 6826
2019-02-22 19:00:00 0.5 0.4 0.7 0 6796
2019-02-22 20:00:00 0.2 0.1 0.4 0 6786
2019-02-22 21:00:00 0 -0.1 0.2 0 6766
2019-02-22 22:00:00 -0.1 -0.2 0 0 6756
2019-02-22 23:00:00 -0.1 -0.3 -0.1 0 6748